Time;durP1;ratioP1;P1;durP2;ratioP2;P2;SDS_P1;SDS_P2;PMS_P1;PMS_P2;Temp;Humidity;BMP_temperature;BMP_pressure;BME280_temperature;BME280_humidity;BME280_pressure;Samples;Min_cycle;Max_cycle;Signal;HPM_P1;HPM_P2
2020/12/27 00:00:10;;;;;;;4.67;4.27;;;;;;;;;;2081714;28;20507;-56
2020/12/27 00:01:11;;;;;;;3.90;3.70;;;;;;;;;;2081452;28;20560;-55
2020/12/27 00:02:12;;;;;;;4.50;4.10;;;;;;;;;;2073060;28;20184;-57
2020/12/27 00:03:12;;;;;;;4.50;4.20;;;;;;;;;;2081356;28;20172;-59
2020/12/27 00:04:12;;;;;;;4.77;4.47;;;;;;;;;;2081895;28;20164;-57
2020/12/27 00:05:13;;;;;;;4.37;3.97;;;;;;;;;;2082010;28;20251;-55
2020/12/27 00:06:13;;;;;;;4.80;4.27;;;;;;;;;;2081710;28;20544;-57
2020/12/27 00:07:14;;;;;;;7.63;4.83;;;;;;;;;;2080869;28;20542;-57
2020/12/27 00:08:15;;;;;;;4.60;3.93;;;;;;;;;;2070230;28;20255;-58
2020/12/27 00:09:17;;;;;;;4.80;4.43;;;;;;;;;;2077077;28;20583;-57
2020/12/27 00:10:18;;;;;;;4.50;4.20;;;;;;;;;;2067614;28;20189;-56
2020/12/27 00:11:18;;;;;;;4.23;3.93;;;;;;;;;;2070025;28;20168;-58
2020/12/27 00:12:18;;;;;;;4.07;3.77;;;;;;;;;;2078148;28;20185;-56
2020/12/27 00:13:18;;;;;;;4.03;3.70;;;;;;;;;;2078108;28;20571;-59
2020/12/27 00:14:19;;;;;;;5.10;4.23;;;;;;;;;;2080983;28;20268;-60
2020/12/27 00:15:19;;;;;;;4.13;3.77;;;;;;;;;;2081580;28;20176;-60
2020/12/27 00:16:23;;;;;;;5.40;4.30;;;;;;;;;;2077409;28;20194;-56
2020/12/27 00:17:23;;;;;;;4.23;3.93;;;;;;;;;;2074028;28;20286;-56
2020/12/27 00:18:23;;;;;;;4.23;3.97;;;;;;;;;;2079547;28;20695;-59
2020/12/27 00:19:24;;;;;;;4.43;4.03;;;;;;;;;;2080931;28;20208;-57
2020/12/27 00:20:24;;;;;;;3.87;3.57;;;;;;;;;;2082235;28;20203;-59
2020/12/27 00:21:24;;;;;;;3.67;3.37;;;;;;;;;;2082410;28;20242;-57
2020/12/27 00:22:24;;;;;;;4.50;4.20;;;;;;;;;;2082559;28;20180;-57
2020/12/27 00:23:25;;;;;;;4.17;3.87;;;;;;;;;;2070786;28;20581;-56
2020/12/27 00:24:25;;;;;;;4.20;3.90;;;;;;;;;;2078159;28;20746;-56
2020/12/27 00:25:25;;;;;;;4.20;3.90;;;;;;;;;;2081130;28;20193;-58
2020/12/27 00:26:26;;;;;;;3.30;3.10;;;;;;;;;;2080109;28;20203;-58
2020/12/27 00:27:26;;;;;;;4.20;3.80;;;;;;;;;;2079815;28;20601;-59
2020/12/27 00:28:26;;;;;;;4.57;4.27;;;;;;;;;;2075473;28;20252;-57
2020/12/27 00:29:26;;;;;;;4.40;4.00;;;;;;;;;;2079791;28;20210;-57
2020/12/27 00:30:27;;;;;;;4.07;3.73;;;;;;;;;;2081069;28;20319;-57
2020/12/27 00:31:27;;;;;;;3.87;3.57;;;;;;;;;;2080653;28;20253;-55
2020/12/27 00:32:28;;;;;;;4.40;4.10;;;;;;;;;;2079574;28;20213;-54
2020/12/27 00:33:28;;;;;;;4.87;4.47;;;;;;;;;;2078733;28;20652;-58
2020/12/27 00:34:28;;;;;;;4.17;3.80;;;;;;;;;;2079839;28;20188;-58
2020/12/27 00:35:29;;;;;;;4.13;3.93;;;;;;;;;;2079418;28;20187;-58
2020/12/27 00:36:29;;;;;;;4.07;3.77;;;;;;;;;;2070769;28;20177;-58
2020/12/27 00:37:30;;;;;;;4.53;4.07;;;;;;;;;;2079615;28;20634;-59
2020/12/27 00:38:30;;;;;;;4.20;3.80;;;;;;;;;;2080956;28;20184;-58
2020/12/27 00:39:30;;;;;;;4.00;3.70;;;;;;;;;;2071016;28;20205;-57
2020/12/27 00:40:31;;;;;;;4.97;3.77;;;;;;;;;;2079540;28;20191;-60
2020/12/27 00:41:31;;;;;;;4.00;3.80;;;;;;;;;;2056543;28;20174;-58
2020/12/27 00:42:31;;;;;;;3.97;3.77;;;;;;;;;;2058859;28;20201;-58
2020/12/27 00:43:32;;;;;;;4.00;3.77;;;;;;;;;;2072720;28;20195;-57
2020/12/27 00:44:32;;;;;;;4.43;4.23;;;;;;;;;;2071519;28;20244;-58
2020/12/27 00:45:32;;;;;;;3.93;3.73;;;;;;;;;;2073930;28;20211;-57
2020/12/27 00:46:33;;;;;;;3.90;3.70;;;;;;;;;;2079765;28;20172;-58
2020/12/27 00:47:33;;;;;;;3.87;3.57;;;;;;;;;;2065309;28;20189;-58
2020/12/27 00:48:33;;;;;;;3.57;3.37;;;;;;;;;;2064465;28;20227;-57
2020/12/27 00:49:34;;;;;;;4.00;3.70;;;;;;;;;;2080997;28;20167;-57
2020/12/27 00:50:34;;;;;;;3.53;3.33;;;;;;;;;;2080813;28;20173;-56
2020/12/27 00:51:34;;;;;;;3.77;3.47;;;;;;;;;;2079773;28;20191;-58
2020/12/27 00:52:34;;;;;;;7.73;4.23;;;;;;;;;;2073675;28;20189;-60
2020/12/27 00:53:35;;;;;;;3.77;3.47;;;;;;;;;;2079028;28;20184;-59
2020/12/27 00:54:35;;;;;;;3.83;3.60;;;;;;;;;;2072183;28;20185;-56
2020/12/27 00:55:36;;;;;;;3.50;3.30;;;;;;;;;;2081902;28;20637;-58
2020/12/27 00:56:36;;;;;;;3.27;3.07;;;;;;;;;;2071007;28;20308;-57
2020/12/27 00:57:44;;;;;;;3.33;3.13;;;;;;;;;;2058211;28;20171;-57
2020/12/27 00:58:45;;;;;;;3.87;3.67;;;;;;;;;;2072704;28;20608;-58
2020/12/27 00:59:45;;;;;;;3.87;3.20;;;;;;;;;;2056095;28;20174;-58
2020/12/27 01:00:48;;;;;;;3.50;3.23;;;;;;;;;;2060967;28;20185;-54
2020/12/27 01:01:53;;;;;;;6.13;3.33;;;;;;;;;;2073374;28;20184;-57
2020/12/27 01:03:13;;;;;;;4.33;3.20;;;;;;;;;;2070991;28;20575;-56
2020/12/27 01:04:32;;;;;;;3.63;3.43;;;;;;;;;;2073267;28;20164;-57
2020/12/27 01:05:32;;;;;;;2.97;2.77;;;;;;;;;;2075033;28;20173;-58
2020/12/27 01:06:37;;;;;;;3.33;3.13;;;;;;;;;;2064781;28;20177;-57
2020/12/27 01:07:40;;;;;;;4.30;3.97;;;;;;;;;;2073082;28;20379;-57
2020/12/27 01:08:52;;;;;;;3.07;2.87;;;;;;;;;;2073618;28;20208;-57
2020/12/27 01:09:52;;;;;;;3.60;3.30;;;;;;;;;;2053204;28;20618;-57
2020/12/27 01:10:53;;;;;;;4.23;3.30;;;;;;;;;;2058620;28;20170;-58
2020/12/27 01:11:53;;;;;;;3.63;3.33;;;;;;;;;;2075247;28;20180;-57
2020/12/27 01:12:54;;;;;;;4.03;3.77;;;;;;;;;;2066534;28;20183;-57
2020/12/27 01:13:54;;;;;;;3.63;3.33;;;;;;;;;;2063878;28;20174;-58
2020/12/27 01:14:55;;;;;;;3.40;3.20;;;;;;;;;;2056652;28;20186;-56
2020/12/27 01:16:19;;;;;;;3.40;3.10;;;;;;;;;;2067961;28;20177;-56
2020/12/27 01:17:22;;;;;;;3.10;3.00;;;;;;;;;;2075262;28;20207;-54
2020/12/27 01:18:22;;;;;;;3.70;3.30;;;;;;;;;;2075450;28;20161;-54
2020/12/27 01:19:27;;;;;;;3.37;3.17;;;;;;;;;;2076708;28;20188;-58
2020/12/27 01:20:28;;;;;;;3.30;3.10;;;;;;;;;;2064149;28;20181;-58
2020/12/27 01:21:32;;;;;;;3.70;3.40;;;;;;;;;;2073155;28;20181;-59
2020/12/27 01:22:39;;;;;;;3.67;3.37;;;;;;;;;;2066103;28;20178;-57
2020/12/27 01:23:51;;;;;;;3.77;3.53;;;;;;;;;;2073679;28;20184;-58
2020/12/27 01:24:51;;;;;;;2.93;2.83;;;;;;;;;;2074209;28;20193;-57
2020/12/27 01:25:52;;;;;;;3.03;2.93;;;;;;;;;;2070934;28;20264;-58
2020/12/27 01:26:52;;;;;;;3.00;2.80;;;;;;;;;;2064436;28;20252;-57
2020/12/27 01:27:53;;;;;;;3.57;3.30;;;;;;;;;;2072158;28;20181;-58
2020/12/27 01:28:53;;;;;;;3.53;3.23;;;;;;;;;;2063811;28;20190;-57
2020/12/27 01:29:53;;;;;;;3.60;3.30;;;;;;;;;;2051909;28;20528;-57
2020/12/27 01:31:09;;;;;;;2.70;2.60;;;;;;;;;;2060828;28;20727;-57
2020/12/27 01:32:14;;;;;;;2.93;2.73;;;;;;;;;;2062086;28;20174;-57
2020/12/27 01:33:22;;;;;;;4.07;3.40;;;;;;;;;;2070773;28;20172;-56
2020/12/27 01:34:30;;;;;;;3.23;3.13;;;;;;;;;;2080610;28;20698;-57
2020/12/27 01:35:31;;;;;;;3.50;3.30;;;;;;;;;;2065763;28;20180;-58
2020/12/27 01:36:32;;;;;;;3.10;2.97;;;;;;;;;;2064201;28;20224;-57
2020/12/27 01:37:33;;;;;;;3.30;3.10;;;;;;;;;;2063694;28;20631;-57
2020/12/27 01:38:33;;;;;;;3.27;2.80;;;;;;;;;;2055713;28;20174;-60
2020/12/27 01:39:34;;;;;;;3.20;3.00;;;;;;;;;;2058058;28;20869;-58
2020/12/27 01:40:34;;;;;;;3.23;3.03;;;;;;;;;;2071112;28;20177;-56
2020/12/27 01:41:37;;;;;;;3.13;2.93;;;;;;;;;;2073024;28;20169;-59
2020/12/27 01:42:40;;;;;;;3.47;3.17;;;;;;;;;;2064449;28;20177;-58
2020/12/27 01:43:40;;;;;;;3.13;2.97;;;;;;;;;;2073273;28;20522;-56
2020/12/27 01:44:41;;;;;;;3.27;3.07;;;;;;;;;;2057588;28;20184;-58
2020/12/27 01:45:44;;;;;;;3.10;2.90;;;;;;;;;;2050660;28;20207;-57
2020/12/27 01:46:47;;;;;;;3.20;2.90;;;;;;;;;;2062870;28;20174;-56
2020/12/27 01:47:58;;;;;;;3.50;3.20;;;;;;;;;;2065633;28;20253;-56
2020/12/27 01:48:58;;;;;;;3.10;2.90;;;;;;;;;;2068933;28;20565;-55
2020/12/27 01:49:59;;;;;;;3.70;3.40;;;;;;;;;;2082263;28;20183;-57
2020/12/27 01:51:00;;;;;;;3.50;3.30;;;;;;;;;;2080003;28;20695;-59
2020/12/27 01:52:11;;;;;;;3.13;2.93;;;;;;;;;;2069970;28;20284;-56
2020/12/27 01:53:32;;;;;;;3.67;3.47;;;;;;;;;;2063101;28;20189;-58
2020/12/27 01:54:33;;;;;;;3.40;3.20;;;;;;;;;;2074092;28;20276;-55
2020/12/27 01:55:45;;;;;;;4.13;3.17;;;;;;;;;;2071444;28;20166;-58
2020/12/27 01:56:49;;;;;;;2.90;2.63;;;;;;;;;;2073656;28;20180;-56
2020/12/27 01:57:52;;;;;;;2.77;2.67;;;;;;;;;;2070862;28;20177;-56
2020/12/27 01:58:57;;;;;;;3.47;3.27;;;;;;;;;;2067650;28;20225;-59
2020/12/27 01:59:58;;;;;;;3.00;2.80;;;;;;;;;;2066013;28;20185;-57
2020/12/27 02:01:13;;;;;;;3.43;3.20;;;;;;;;;;2072874;28;20180;-59
2020/12/27 02:02:23;;;;;;;3.00;2.80;;;;;;;;;;2076760;28;20183;-56
2020/12/27 02:03:39;;;;;;;3.10;3.00;;;;;;;;;;2071966;28;20671;-58
2020/12/27 02:04:50;;;;;;;3.47;3.27;;;;;;;;;;2061577;28;20170;-58
2020/12/27 02:05:51;;;;;;;3.40;3.20;;;;;;;;;;2068116;28;20266;-57
2020/12/27 02:06:54;;;;;;;3.07;2.83;;;;;;;;;;2068322;28;20213;-59
2020/12/27 02:08:07;;;;;;;3.07;2.87;;;;;;;;;;2074649;28;20176;-57
2020/12/27 02:09:20;;;;;;;3.17;3.07;;;;;;;;;;2067566;28;20201;-55
2020/12/27 02:10:26;;;;;;;3.50;3.30;;;;;;;;;;2068700;28;20177;-58
2020/12/27 02:11:26;;;;;;;3.27;2.87;;;;;;;;;;2067091;28;20268;-58
2020/12/27 02:12:27;;;;;;;2.87;2.67;;;;;;;;;;2058696;28;20627;-56
2020/12/27 02:13:27;;;;;;;3.40;3.20;;;;;;;;;;2063652;28;20189;-57
2020/12/27 02:14:27;;;;;;;2.87;2.67;;;;;;;;;;2080031;28;20176;-57
2020/12/27 02:15:28;;;;;;;3.57;3.33;;;;;;;;;;2071826;28;20177;-57
2020/12/27 02:16:47;;;;;;;3.17;2.97;;;;;;;;;;2069049;28;20158;-57
2020/12/27 02:18:06;;;;;;;3.43;3.23;;;;;;;;;;2079237;28;20187;-55
2020/12/27 02:19:12;;;;;;;3.00;2.80;;;;;;;;;;2071369;28;20212;-56
2020/12/27 02:20:15;;;;;;;3.63;3.33;;;;;;;;;;2062630;28;20189;-57
2020/12/27 02:21:23;;;;;;;3.10;2.90;;;;;;;;;;2057891;28;20187;-55
2020/12/27 02:22:24;;;;;;;2.63;2.53;;;;;;;;;;2077174;28;20263;-58
2020/12/27 02:23:45;;;;;;;3.20;3.00;;;;;;;;;;2064536;28;20193;-59
2020/12/27 02:24:51;;;;;;;3.13;2.80;;;;;;;;;;2076079;28;20170;-56
2020/12/27 02:25:56;;;;;;;3.53;3.33;;;;;;;;;;2067751;28;20184;-56
2020/12/27 02:27:08;;;;;;;3.30;3.10;;;;;;;;;;2071732;28;20458;-55
2020/12/27 02:28:08;;;;;;;3.87;3.67;;;;;;;;;;2073570;28;20161;-56
2020/12/27 02:29:09;;;;;;;3.20;3.00;;;;;;;;;;2067468;28;20878;-56
2020/12/27 02:30:10;;;;;;;3.23;3.03;;;;;;;;;;2065606;28;20189;-57
2020/12/27 02:31:11;;;;;;;3.27;3.17;;;;;;;;;;2073768;28;20751;-57
2020/12/27 02:32:22;;;;;;;3.40;3.20;;;;;;;;;;2076529;28;20636;-56
2020/12/27 02:33:23;;;;;;;2.67;2.57;;;;;;;;;;2070327;28;20213;-56
2020/12/27 02:34:24;;;;;;;2.90;2.70;;;;;;;;;;2064525;28;20181;-56
2020/12/27 02:35:25;;;;;;;3.17;2.97;;;;;;;;;;2063189;28;20313;-54
2020/12/27 02:36:29;;;;;;;3.27;3.07;;;;;;;;;;2079973;28;20179;-53
2020/12/27 02:37:31;;;;;;;2.80;2.70;;;;;;;;;;2072035;28;20207;-58
2020/12/27 02:38:38;;;;;;;2.43;2.33;;;;;;;;;;2072658;28;20192;-56
2020/12/27 02:39:39;;;;;;;2.90;2.70;;;;;;;;;;2077618;28;20266;-56
2020/12/27 02:40:42;;;;;;;2.30;2.20;;;;;;;;;;2080128;28;20183;-56
2020/12/27 02:41:51;;;;;;;2.90;2.70;;;;;;;;;;2067632;28;20724;-56
2020/12/27 02:42:57;;;;;;;3.20;2.53;;;;;;;;;;2070519;28;20178;-58
2020/12/27 02:43:58;;;;;;;2.70;2.50;;;;;;;;;;2067625;28;20674;-58
2020/12/27 02:46:22;;;;;;;2.37;2.27;;;;;;;;;;2078903;28;20157;-54
2020/12/27 02:47:48;;;;;;;3.03;2.93;;;;;;;;;;2071498;28;20188;-58
2020/12/27 02:49:03;;;;;;;2.87;2.67;;;;;;;;;;2075708;28;20709;-57
2020/12/27 02:50:12;;;;;;;2.87;2.77;;;;;;;;;;2075794;28;20180;-58
2020/12/27 02:51:14;;;;;;;3.87;2.77;;;;;;;;;;2077719;28;20175;-54
2020/12/27 02:52:14;;;;;;;3.10;2.80;;;;;;;;;;2076061;28;20565;-57
2020/12/27 02:53:14;;;;;;;3.10;2.90;;;;;;;;;;2069165;28;20184;-55
2020/12/27 02:54:15;;;;;;;3.27;3.07;;;;;;;;;;2064182;28;20173;-57
2020/12/27 02:55:15;;;;;;;2.63;2.43;;;;;;;;;;2062221;28;20178;-57
2020/12/27 02:56:26;;;;;;;2.60;2.50;;;;;;;;;;2068853;28;20173;-56
2020/12/27 02:57:26;;;;;;;2.80;2.60;;;;;;;;;;2071257;28;20255;-57
2020/12/27 02:58:29;;;;;;;2.97;2.77;;;;;;;;;;2066402;28;20248;-55
2020/12/27 02:59:32;;;;;;;2.50;2.40;;;;;;;;;;2092900;22;20200;-55
2020/12/27 03:00:42;;;;;;;3.17;3.03;;;;;;;;;;2061733;28;20232;-53
2020/12/27 03:02:02;;;;;;;2.40;2.30;;;;;;;;;;2051064;28;20209;-53
2020/12/27 03:03:11;;;;;;;3.83;2.90;;;;;;;;;;2071301;28;20280;-57
2020/12/27 03:04:17;;;;;;;3.53;3.23;;;;;;;;;;2073064;28;20184;-55
2020/12/27 03:05:21;;;;;;;2.60;2.50;;;;;;;;;;2078245;28;20545;-57
2020/12/27 03:06:21;;;;;;;2.53;2.43;;;;;;;;;;2082880;28;20176;-57
2020/12/27 03:07:24;;;;;;;2.80;2.60;;;;;;;;;;2076242;28;20204;-57
2020/12/27 03:08:33;;;;;;;2.70;2.60;;;;;;;;;;2073090;28;20176;-58
2020/12/27 03:09:53;;;;;;;2.70;2.50;;;;;;;;;;2072048;28;20845;-56
2020/12/27 03:11:07;;;;;;;2.80;2.70;;;;;;;;;;2081379;28;20611;-58
2020/12/27 03:12:07;;;;;;;2.20;2.10;;;;;;;;;;2069505;28;20219;-57
2020/12/27 03:13:08;;;;;;;2.50;2.33;;;;;;;;;;2056907;28;20173;-55
2020/12/27 03:14:09;;;;;;;2.67;2.47;;;;;;;;;;2064265;28;20253;-61
2020/12/27 03:15:18;;;;;;;2.40;2.30;;;;;;;;;;2063292;28;20193;-58
2020/12/27 03:16:33;;;;;;;2.67;2.50;;;;;;;;;;2072060;28;20188;-59
2020/12/27 03:17:48;;;;;;;2.70;2.60;;;;;;;;;;2057603;28;20205;-61
2020/12/27 03:19:22;;;;;;;3.03;2.57;;;;;;;;;;2058830;28;20176;-60
2020/12/27 03:20:31;;;;;;;2.70;2.60;;;;;;;;;;2070340;28;20637;-58
2020/12/27 03:21:43;;;;;;;2.50;2.30;;;;;;;;;;2059117;28;20185;-58
2020/12/27 03:23:02;;;;;;;2.20;2.10;;;;;;;;;;2076007;28;20173;-58
2020/12/27 03:24:23;;;;;;;2.90;2.70;;;;;;;;;;2066891;28;20173;-57
2020/12/27 03:25:24;;;;;;;2.53;2.40;;;;;;;;;;2046626;29;20207;-58
2020/12/27 03:26:24;;;;;;;2.27;2.17;;;;;;;;;;2047977;28;20175;-60
2020/12/27 03:27:24;;;;;;;2.63;2.43;;;;;;;;;;2070683;28;20282;-59
2020/12/27 03:28:25;;;;;;;2.40;2.23;;;;;;;;;;2066878;28;20170;-61
2020/12/27 03:29:31;;;;;;;2.47;2.37;;;;;;;;;;2072431;28;20220;-58
2020/12/27 03:30:31;;;;;;;2.60;2.50;;;;;;;;;;2064555;28;20174;-58
2020/12/27 03:31:35;;;;;;;3.20;2.70;;;;;;;;;;2068221;28;20209;-58
2020/12/27 03:32:41;;;;;;;3.03;2.33;;;;;;;;;;2071519;28;20200;-59
2020/12/27 03:33:41;;;;;;;2.20;2.10;;;;;;;;;;2073065;28;20173;-58
2020/12/27 03:34:47;;;;;;;2.73;2.53;;;;;;;;;;2064407;28;20188;-58
2020/12/27 03:35:47;;;;;;;2.23;2.13;;;;;;;;;;2071611;28;20173;-61
2020/12/27 03:36:47;;;;;;;2.67;2.57;;;;;;;;;;2064780;28;20178;-58
2020/12/27 03:38:08;;;;;;;2.50;2.30;;;;;;;;;;2073553;28;20185;-59
2020/12/27 03:39:21;;;;;;;2.87;2.57;;;;;;;;;;2077586;28;20449;-59
2020/12/27 03:40:48;;;;;;;2.20;2.10;;;;;;;;;;2057835;28;20186;-61
2020/12/27 03:41:55;;;;;;;2.47;2.27;;;;;;;;;;2063850;28;20182;-59
2020/12/27 03:43:18;;;;;;;2.77;2.10;;;;;;;;;;2067111;28;20378;-61
2020/12/27 03:44:20;;;;;;;2.03;1.93;;;;;;;;;;2061430;28;20550;-61
2020/12/27 03:45:41;;;;;;;2.20;2.10;;;;;;;;;;2072657;28;20181;-59
2020/12/27 03:47:11;;;;;;;2.53;2.40;;;;;;;;;;2064589;28;20173;-59
2020/12/27 03:48:22;;;;;;;2.20;2.03;;;;;;;;;;2071444;28;20176;-58
2020/12/27 03:49:42;;;;;;;2.03;1.83;;;;;;;;;;2051762;28;20678;-60
2020/12/27 03:50:51;;;;;;;2.27;2.17;;;;;;;;;;2079157;28;20164;-58
2020/12/27 03:51:52;;;;;;;2.40;2.30;;;;;;;;;;2064627;28;20220;-61
2020/12/27 03:53:01;;;;;;;2.10;2.00;;;;;;;;;;2062760;28;20209;-59
2020/12/27 03:54:19;;;;;;;1.90;1.80;;;;;;;;;;2059250;28;20174;-61
2020/12/27 03:55:42;;;;;;;2.10;2.00;;;;;;;;;;2037343;29;20187;-60
2020/12/27 03:57:01;;;;;;;1.97;1.87;;;;;;;;;;2067006;28;20169;-60
2020/12/27 03:58:14;;;;;;;1.93;1.83;;;;;;;;;;2055096;28;20174;-59
2020/12/27 03:59:20;;;;;;;2.90;2.17;;;;;;;;;;2059578;28;20268;-57
2020/12/27 04:00:29;;;;;;;1.83;1.80;;;;;;;;;;2062487;28;20186;-59
2020/12/27 04:01:36;;;;;;;2.10;2.00;;;;;;;;;;2068386;28;20180;-59
2020/12/27 04:02:37;;;;;;;2.07;1.97;;;;;;;;;;2064585;28;20650;-60
2020/12/27 04:03:37;;;;;;;2.00;1.90;;;;;;;;;;2065825;28;20177;-61
2020/12/27 04:04:45;;;;;;;2.00;1.90;;;;;;;;;;2065437;28;20176;-60
2020/12/27 04:05:46;;;;;;;2.10;2.00;;;;;;;;;;2057848;28;20659;-60
2020/12/27 04:06:46;;;;;;;3.33;2.10;;;;;;;;;;2073553;28;20549;-57
2020/12/27 04:08:04;;;;;;;1.90;1.80;;;;;;;;;;2061031;28;20200;-59
2020/12/27 04:09:04;;;;;;;1.90;1.80;;;;;;;;;;2066318;28;20665;-56
2020/12/27 04:10:06;;;;;;;1.87;1.77;;;;;;;;;;2074413;28;20275;-59
2020/12/27 04:11:06;;;;;;;1.70;1.70;;;;;;;;;;2067420;28;20177;-61
2020/12/27 04:12:07;;;;;;;1.93;1.83;;;;;;;;;;2067657;28;20283;-57
2020/12/27 04:13:09;;;;;;;1.67;1.57;;;;;;;;;;2063889;28;20160;-57
2020/12/27 04:14:10;;;;;;;2.27;2.17;;;;;;;;;;2061651;28;20838;-60
2020/12/27 04:15:10;;;;;;;1.97;1.87;;;;;;;;;;2068112;28;20180;-60
2020/12/27 04:16:24;;;;;;;1.53;1.47;;;;;;;;;;2066790;28;20176;-60
2020/12/27 04:17:27;;;;;;;2.07;1.93;;;;;;;;;;2062597;28;20202;-59
2020/12/27 04:18:27;;;;;;;1.90;1.80;;;;;;;;;;2066252;28;20177;-57
2020/12/27 04:19:46;;;;;;;1.70;1.60;;;;;;;;;;2067943;28;20200;-59
2020/12/27 04:20:49;;;;;;;2.07;1.97;;;;;;;;;;2073120;28;20264;-61
2020/12/27 04:21:50;;;;;;;1.73;1.73;;;;;;;;;;2065400;28;20180;-62
2020/12/27 04:23:02;;;;;;;2.17;1.70;;;;;;;;;;2069931;28;20248;-59
2020/12/27 04:24:02;;;;;;;2.37;1.83;;;;;;;;;;2056162;28;20185;-56
2020/12/27 04:25:05;;;;;;;1.90;1.80;;;;;;;;;;2056385;28;20201;-60
2020/12/27 04:26:06;;;;;;;1.87;1.80;;;;;;;;;;2067518;28;20202;-59
2020/12/27 04:27:06;;;;;;;1.70;1.70;;;;;;;;;;2076047;28;20247;-60
2020/12/27 04:28:07;;;;;;;1.73;1.70;;;;;;;;;;2067581;28;20184;-58
2020/12/27 04:29:07;;;;;;;1.47;1.40;;;;;;;;;;2071518;28;20598;-59
2020/12/27 04:30:09;;;;;;;1.97;1.60;;;;;;;;;;2066910;28;20553;-56
2020/12/27 04:31:27;;;;;;;1.60;1.60;;;;;;;;;;2069952;28;20255;-55
2020/12/27 04:32:39;;;;;;;2.33;1.90;;;;;;;;;;2066416;28;20173;-56
2020/12/27 04:33:54;;;;;;;1.73;1.63;;;;;;;;;;2065897;28;20171;-59
2020/12/27 04:35:05;;;;;;;1.90;1.80;;;;;;;;;;2069229;28;20175;-55
2020/12/27 04:36:08;;;;;;;1.50;1.50;;;;;;;;;;2063853;28;20261;-60
2020/12/27 04:37:09;;;;;;;1.47;1.47;;;;;;;;;;2067681;28;20168;-55
2020/12/27 04:38:16;;;;;;;1.60;1.60;;;;;;;;;;2068764;28;20645;-56
2020/12/27 04:39:16;;;;;;;1.80;1.70;;;;;;;;;;2066551;28;20165;-56
2020/12/27 04:40:21;;;;;;;1.47;1.43;;;;;;;;;;2065141;28;20169;-56
2020/12/27 04:41:24;;;;;;;1.33;1.33;;;;;;;;;;2075506;28;20176;-56
2020/12/27 04:42:28;;;;;;;1.53;1.50;;;;;;;;;;2063789;28;20173;-55
2020/12/27 04:43:32;;;;;;;1.83;1.77;;;;;;;;;;2055426;28;20174;-56
2020/12/27 04:44:33;;;;;;;1.50;1.50;;;;;;;;;;2055388;28;20701;-55
2020/12/27 04:45:40;;;;;;;1.67;1.57;;;;;;;;;;2057106;28;20209;-59
2020/12/27 04:46:51;;;;;;;2.77;1.77;;;;;;;;;;2051135;28;20175;-53
2020/12/27 04:48:08;;;;;;;1.50;1.40;;;;;;;;;;2054460;28;20182;-61
2020/12/27 04:49:31;;;;;;;1.60;1.60;;;;;;;;;;2038978;29;20211;-57
2020/12/27 04:50:38;;;;;;;1.67;1.60;;;;;;;;;;2067874;28;20569;-58
2020/12/27 04:51:39;;;;;;;1.63;1.50;;;;;;;;;;2065199;28;20272;-58
2020/12/27 04:52:59;;;;;;;1.50;1.50;;;;;;;;;;2067008;28;20223;-56
2020/12/27 04:54:03;;;;;;;1.40;1.40;;;;;;;;;;2067325;28;20173;-61
2020/12/27 04:55:15;;;;;;;1.83;1.50;;;;;;;;;;2058499;28;20187;-57
2020/12/27 04:56:40;;;;;;;1.60;1.60;;;;;;;;;;2080101;28;20239;-50
2020/12/27 04:57:50;;;;;;;1.60;1.50;;;;;;;;;;2063725;28;20213;-60
2020/12/27 04:58:52;;;;;;;1.80;1.70;;;;;;;;;;2065671;28;20209;-57
2020/12/27 04:59:57;;;;;;;1.20;1.20;;;;;;;;;;2062276;28;20217;-64
2020/12/27 05:01:21;;;;;;;1.53;1.43;;;;;;;;;;2067748;28;20176;-58
2020/12/27 05:02:36;;;;;;;1.47;1.47;;;;;;;;;;2072709;28;20176;-58
2020/12/27 05:03:37;;;;;;;1.40;1.40;;;;;;;;;;2072037;28;20165;-56
2020/12/27 05:04:38;;;;;;;1.40;1.33;;;;;;;;;;2063760;28;20721;-59
2020/12/27 05:05:58;;;;;;;1.63;1.53;;;;;;;;;;2061795;28;20312;-56
2020/12/27 05:06:58;;;;;;;1.30;1.30;;;;;;;;;;2076200;28;20223;-56
2020/12/27 05:08:11;;;;;;;1.40;1.40;;;;;;;;;;2068478;28;20169;-58
2020/12/27 05:09:28;;;;;;;1.20;1.20;;;;;;;;;;2066090;28;20252;-58
2020/12/27 05:10:28;;;;;;;1.47;1.47;;;;;;;;;;2064361;28;20623;-54
2020/12/27 05:11:36;;;;;;;2.20;1.80;;;;;;;;;;2056461;28;20190;-58
2020/12/27 05:12:45;;;;;;;1.60;1.50;;;;;;;;;;2057372;28;20171;-59
2020/12/27 05:13:45;;;;;;;1.70;1.60;;;;;;;;;;2056773;28;20162;-60
2020/12/27 05:14:55;;;;;;;1.70;1.60;;;;;;;;;;2072333;28;20213;-60
2020/12/27 05:16:02;;;;;;;1.43;1.40;;;;;;;;;;2064611;28;20182;-59
2020/12/27 05:17:02;;;;;;;1.90;1.80;;;;;;;;;;2063621;28;20185;-54
2020/12/27 05:18:18;;;;;;;1.27;1.27;;;;;;;;;;2058704;28;20166;-57
2020/12/27 05:19:21;;;;;;;1.77;1.67;;;;;;;;;;2059901;28;20189;-56
2020/12/27 05:20:21;;;;;;;1.50;1.50;;;;;;;;;;2065980;28;20176;-58
2020/12/27 05:21:26;;;;;;;1.40;1.40;;;;;;;;;;2066059;28;20185;-57
2020/12/27 05:22:27;;;;;;;1.60;1.50;;;;;;;;;;2057956;28;20199;-57
2020/12/27 05:23:35;;;;;;;1.40;1.40;;;;;;;;;;2058031;28;20169;-59
2020/12/27 05:24:48;;;;;;;1.50;1.50;;;;;;;;;;2054082;28;20184;-54
2020/12/27 05:26:05;;;;;;;1.50;1.50;;;;;;;;;;2059909;28;20170;-55
2020/12/27 05:27:17;;;;;;;1.97;1.80;;;;;;;;;;2073721;28;20177;-56
2020/12/27 05:28:37;;;;;;;1.60;1.60;;;;;;;;;;2073835;28;20639;-58
2020/12/27 05:29:59;;;;;;;1.53;1.53;;;;;;;;;;2066012;28;20206;-58
2020/12/27 05:31:35;;;;;;;1.20;1.20;;;;;;;;;;2070702;28;20610;-58
2020/12/27 05:33:12;;;;;;;1.83;1.53;;;;;;;;;;2042043;29;20183;-58
2020/12/27 05:34:35;;;;;;;1.53;1.43;;;;;;;;;;2049660;28;20198;-55
2020/12/27 05:36:03;;;;;;;1.30;1.30;;;;;;;;;;2062090;28;20208;-56
2020/12/27 05:37:15;;;;;;;1.30;1.30;;;;;;;;;;2049476;29;20179;-55
2020/12/27 05:38:34;;;;;;;1.70;1.70;;;;;;;;;;2059299;28;20185;-56
2020/12/27 05:39:54;;;;;;;1.67;1.57;;;;;;;;;;2066151;28;20197;-56
2020/12/27 05:41:23;;;;;;;1.43;1.40;;;;;;;;;;2071070;28;20165;-57
2020/12/27 05:42:27;;;;;;;1.33;1.33;;;;;;;;;;2075546;28;20187;-57
2020/12/27 05:43:28;;;;;;;1.50;1.50;;;;;;;;;;2073116;28;20207;-57
2020/12/27 05:44:37;;;;;;;1.67;1.53;;;;;;;;;;2079174;28;20157;-57
2020/12/27 05:45:38;;;;;;;1.60;1.60;;;;;;;;;;2060876;28;20717;-56
2020/12/27 05:46:43;;;;;;;1.60;1.50;;;;;;;;;;2072049;28;20169;-55
2020/12/27 05:47:44;;;;;;;1.63;1.23;;;;;;;;;;2065756;28;20698;-57
2020/12/27 05:48:45;;;;;;;1.30;1.30;;;;;;;;;;2071466;28;20253;-55
2020/12/27 05:49:46;;;;;;;1.80;1.70;;;;;;;;;;2058121;28;20316;-57
2020/12/27 05:50:48;;;;;;;1.87;1.77;;;;;;;;;;2070489;28;20209;-59
2020/12/27 05:51:58;;;;;;;1.33;1.30;;;;;;;;;;2074467;28;20347;-56
2020/12/27 05:53:09;;;;;;;1.40;1.40;;;;;;;;;;2077617;28;20174;-59
2020/12/27 05:54:20;;;;;;;1.23;1.23;;;;;;;;;;2077750;28;20189;-55
2020/12/27 05:55:29;;;;;;;1.47;1.30;;;;;;;;;;2067745;28;20212;-61
2020/12/27 05:56:32;;;;;;;1.40;1.40;;;;;;;;;;2062087;28;20172;-59
2020/12/27 05:57:40;;;;;;;1.53;1.37;;;;;;;;;;2067016;28;20189;-58
2020/12/27 05:58:43;;;;;;;1.60;1.50;;;;;;;;;;2062537;28;20180;-59
2020/12/27 05:59:49;;;;;;;1.27;1.27;;;;;;;;;;2058396;28;20213;-56
2020/12/27 06:01:04;;;;;;;2.07;1.63;;;;;;;;;;2058092;28;20201;-62
2020/12/27 06:02:04;;;;;;;1.83;1.60;;;;;;;;;;2065735;28;20166;-52
2020/12/27 06:03:06;;;;;;;1.40;1.40;;;;;;;;;;2070567;28;20169;-55
2020/12/27 06:04:24;;;;;;;1.33;1.33;;;;;;;;;;2069511;28;20194;-54
2020/12/27 06:05:43;;;;;;;1.40;1.40;;;;;;;;;;2057233;28;20671;-57
2020/12/27 06:07:03;;;;;;;1.50;1.40;;;;;;;;;;2065882;28;20178;-57
2020/12/27 06:08:30;;;;;;;1.60;1.60;;;;;;;;;;2078331;28;20168;-58
2020/12/27 06:09:38;;;;;;;1.33;1.33;;;;;;;;;;2065634;28;20174;-55
2020/12/27 06:10:54;;;;;;;1.30;1.30;;;;;;;;;;2058799;28;20790;-54
2020/12/27 06:11:59;;;;;;;1.30;1.30;;;;;;;;;;2067549;28;20181;-54
2020/12/27 06:13:09;;;;;;;1.30;1.30;;;;;;;;;;2064925;28;20180;-58
2020/12/27 06:14:15;;;;;;;1.47;1.47;;;;;;;;;;2059163;28;20185;-56
2020/12/27 06:15:42;;;;;;;1.40;1.40;;;;;;;;;;2055292;28;20200;-57
2020/12/27 06:17:09;;;;;;;1.40;1.40;;;;;;;;;;2067847;28;20166;-54
2020/12/27 06:18:38;;;;;;;1.40;1.40;;;;;;;;;;2081159;28;20184;-56
2020/12/27 06:20:01;;;;;;;1.30;1.30;;;;;;;;;;2066890;28;20205;-59
2020/12/27 06:21:09;;;;;;;1.60;1.50;;;;;;;;;;2061891;28;20559;-58
2020/12/27 06:22:18;;;;;;;1.30;1.30;;;;;;;;;;2070327;28;20169;-57
2020/12/27 06:23:37;;;;;;;1.33;1.27;;;;;;;;;;2075955;28;20192;-57
2020/12/27 06:24:38;;;;;;;1.33;1.30;;;;;;;;;;2069552;28;20188;-54
2020/12/27 06:25:39;;;;;;;1.10;1.10;;;;;;;;;;2066856;28;20173;-58
2020/12/27 06:26:42;;;;;;;1.47;1.47;;;;;;;;;;2071157;28;20169;-57
2020/12/27 06:27:53;;;;;;;1.20;1.20;;;;;;;;;;2067705;28;20637;-56
2020/12/27 06:28:53;;;;;;;1.70;1.60;;;;;;;;;;2078564;28;20255;-58
2020/12/27 06:30:01;;;;;;;1.40;1.40;;;;;;;;;;2061607;28;20206;-60
2020/12/27 06:31:09;;;;;;;1.50;1.40;;;;;;;;;;2059319;28;20186;-55
2020/12/27 06:32:31;;;;;;;1.30;1.30;;;;;;;;;;2069810;28;20181;-55
2020/12/27 06:33:34;;;;;;;1.47;1.37;;;;;;;;;;2072088;28;20203;-55
2020/12/27 06:34:36;;;;;;;1.30;1.30;;;;;;;;;;2056969;28;20184;-55
2020/12/27 06:35:43;;;;;;;1.57;1.57;;;;;;;;;;2057960;28;20190;-56
2020/12/27 06:36:48;;;;;;;1.30;1.30;;;;;;;;;;2056832;28;20237;-56
2020/12/27 06:37:53;;;;;;;1.40;1.30;;;;;;;;;;2059743;28;20202;-55
2020/12/27 06:39:30;;;;;;;1.20;1.20;;;;;;;;;;2053682;28;20614;-60
2020/12/27 06:40:38;;;;;;;1.47;1.47;;;;;;;;;;2071840;28;20283;-57